Time;durP1;ratioP1;P1;durP2;ratioP2;P2;SDS_P1;SDS_P2;PMS_P1;PMS_P2;Temp;Humidity;BMP_temperature;BMP_pressure;BME280_temperature;BME280_humidity;BME280_pressure;Samples;Min_cycle;Max_cycle;Signal;HPM_P1;HPM_P2
2022/08/16 00:02:09;;;;;;;0.70;0.10;;;21.90;99.90;;;;;;5073486;28;20453;-74
2022/08/16 00:04:41;;;;;;;0.70;0.10;;;21.90;99.90;;;;;;5073258;28;20434;-74
2022/08/16 00:07:09;;;;;;;1.13;0.43;;;22.00;99.90;;;;;;5073125;28;20821;-74
2022/08/16 00:09:37;;;;;;;0.70;0.40;;;21.90;99.90;;;;;;5073033;28;20798;-73
2022/08/16 00:12:08;;;;;;;0.80;0.40;;;21.90;99.90;;;;;;5072880;28;20972;-74
2022/08/16 00:14:36;;;;;;;0.70;0.20;;;21.80;99.90;;;;;;5073051;28;20787;-74
2022/08/16 00:17:04;;;;;;;0.80;0.40;;;21.80;99.90;;;;;;5072911;28;20991;-74
2022/08/16 00:19:48;;;;;;;0.70;0.20;;;21.70;99.90;;;;;;5073207;28;20441;-74
2022/08/16 00:22:21;;;;;;;0.70;0.30;;;21.70;99.90;;;;;;5073131;28;20469;-74
2022/08/16 00:24:53;;;;;;;1.43;1.33;;;21.70;99.90;;;;;;5073232;28;20543;-73
2022/08/16 00:27:22;;;;;;;0.70;0.30;;;21.70;99.90;;;;;;5072793;28;20484;-72
2022/08/16 00:29:50;;;;;;;0.70;0.20;;;21.70;99.90;;;;;;5073008;28;20475;-73
2022/08/16 00:32:40;;;;;;;0.80;0.50;;;21.70;99.90;;;;;;5072624;28;20553;-74
2022/08/16 00:35:13;;;;;;;0.70;0.20;;;21.70;99.90;;;;;;5072915;28;20928;-73
2022/08/16 00:37:43;;;;;;;0.90;0.57;;;21.60;99.90;;;;;;5072578;28;20441;-73
2022/08/16 00:40:28;;;;;;;0.80;0.43;;;;;;;;;;5075418;28;20493;-73
2022/08/16 00:43:07;;;;;;;0.70;0.20;;;21.60;99.90;;;;;;5075615;28;20442;-73
2022/08/16 00:45:44;;;;;;;1.83;1.37;;;21.60;99.90;;;;;;5076866;28;20443;-73
2022/08/16 00:48:28;;;;;;;0.80;0.30;;;21.60;99.90;;;;;;5077358;28;20481;-73
2022/08/16 00:51:00;;;;;;;0.90;0.30;;;21.60;99.90;;;;;;5073349;28;20466;-73
2022/08/16 00:53:28;;;;;;;0.77;0.47;;;21.60;99.90;;;;;;5072251;28;20932;-73
2022/08/16 00:56:02;;;;;;;0.70;0.30;;;21.60;99.90;;;;;;5072312;28;20461;-73
2022/08/16 00:58:35;;;;;;;0.70;0.20;;;21.70;99.90;;;;;;5072352;28;20939;-74
2022/08/16 01:01:05;;;;;;;0.80;0.30;;;21.70;99.90;;;;;;5072045;28;20465;-73
2022/08/16 01:03:37;;;;;;;0.70;0.20;;;21.70;99.90;;;;;;5072039;28;20468;-74
2022/08/16 01:06:12;;;;;;;0.70;0.10;;;21.50;99.90;;;;;;5072246;28;20814;-72
2022/08/16 01:09:04;;;;;;;0.70;0.20;;;21.50;99.90;;;;;;5072234;28;20948;-73
2022/08/16 01:11:37;;;;;;;0.70;0.20;;;21.60;99.90;;;;;;5072375;28;20552;-74
2022/08/16 01:14:26;;;;;;;0.70;0.10;;;21.60;99.90;;;;;;5071777;28;20736;-73
2022/08/16 01:16:58;;;;;;;0.70;0.20;;;21.60;99.90;;;;;;5072317;28;21101;-73
2022/08/16 01:19:32;;;;;;;0.70;0.33;;;21.60;99.90;;;;;;5072110;28;20476;-73
2022/08/16 01:22:06;;;;;;;0.70;0.20;;;21.50;99.90;;;;;;5072181;28;20469;-73
2022/08/16 01:24:59;;;;;;;0.70;0.20;;;21.60;99.90;;;;;;5071846;28;21006;-72
2022/08/16 01:27:32;;;;;;;0.70;0.10;;;21.60;99.90;;;;;;5072280;28;20983;-73
2022/08/16 01:30:06;;;;;;;0.70;0.10;;;21.70;99.90;;;;;;5072686;28;20465;-72
2022/08/16 01:32:49;;;;;;;0.90;0.53;;;21.70;99.90;;;;;;5074680;28;20448;-74
2022/08/16 01:35:33;;;;;;;0.70;0.20;;;21.70;99.90;;;;;;5073504;28;20784;-72
2022/08/16 01:38:17;;;;;;;0.70;0.10;;;21.50;99.90;;;;;;5073821;28;20434;-73
2022/08/16 01:40:50;;;;;;;0.70;0.10;;;21.40;99.90;;;;;;5084390;28;20464;-73
2022/08/16 01:43:18;;;;;;;0.70;0.13;;;21.30;99.90;;;;;;5085965;28;20441;-75
2022/08/16 01:45:53;;;;;;;0.70;0.10;;;21.40;99.90;;;;;;5076280;28;20460;-73
2022/08/16 01:48:28;;;;;;;0.70;0.20;;;21.40;99.90;;;;;;5075961;28;20479;-73
2022/08/16 01:50:57;;;;;;;0.70;0.20;;;21.40;99.90;;;;;;5074739;28;20465;-72
2022/08/16 01:53:36;;;;;;;0.70;0.10;;;21.40;99.90;;;;;;5073531;28;20936;-73
2022/08/16 01:56:08;;;;;;;0.70;0.10;;;21.50;99.90;;;;;;5069914;28;20449;-73
2022/08/16 01:58:53;;;;;;;0.70;0.10;;;21.50;99.90;;;;;;5071872;28;20541;-73
2022/08/16 02:01:21;;;;;;;0.70;0.20;;;21.80;99.90;;;;;;5072447;28;20468;-74
2022/08/16 02:03:50;;;;;;;0.70;0.50;;;21.90;99.90;;;;;;5072672;28;20854;-74
2022/08/16 02:06:19;;;;;;;0.70;0.20;;;22.00;99.90;;;;;;5072204;28;20445;-75
2022/08/16 02:09:03;;;;;;;0.70;0.10;;;22.10;99.90;;;;;;5072225;28;20461;-74
2022/08/16 02:11:34;;;;;;;0.70;0.20;;;22.10;99.90;;;;;;5071836;28;20484;-74
2022/08/16 02:14:20;;;;;;;0.70;0.30;;;22.00;99.90;;;;;;5071332;28;20426;-74
2022/08/16 02:16:49;;;;;;;0.70;0.20;;;22.00;99.90;;;;;;5071428;28;20524;-74
2022/08/16 02:19:19;;;;;;;0.70;0.20;;;21.90;99.90;;;;;;5071364;28;20992;-74
2022/08/16 02:21:55;;;;;;;0.70;0.10;;;22.00;99.90;;;;;;5071265;28;20465;-74
2022/08/16 02:24:43;;;;;;;0.70;0.10;;;22.00;99.90;;;;;;5071181;28;20477;-74
2022/08/16 02:27:14;;;;;;;0.70;0.10;;;22.10;99.90;;;;;;5073948;28;20958;-74
2022/08/16 02:29:43;;;;;;;0.70;0.10;;;22.10;99.90;;;;;;5075590;28;20437;-74
2022/08/16 02:32:14;;;;;;;0.70;0.20;;;22.10;99.90;;;;;;5075472;28;20500;-74
2022/08/16 02:35:02;;;;;;;0.70;0.10;;;22.10;99.90;;;;;;5075060;28;20932;-74
2022/08/16 02:37:30;;;;;;;0.70;0.10;;;22.00;99.90;;;;;;5074935;28;20520;-73
2022/08/16 02:40:19;;;;;;;0.90;0.20;;;22.10;99.90;;;;;;5075291;28;20781;-73
2022/08/16 02:42:50;;;;;;;0.70;0.13;;;22.10;99.90;;;;;;5075382;28;20512;-73
2022/08/16 02:45:20;;;;;;;0.70;0.10;;;22.30;99.90;;;;;;5075201;28;20465;-73
2022/08/16 02:47:55;;;;;;;0.70;0.10;;;22.20;99.90;;;;;;5075010;28;20534;-73
2022/08/16 02:50:43;;;;;;;0.70;0.10;;;22.20;99.90;;;;;;5074774;28;20461;-74
2022/08/16 02:53:30;;;;;;;0.70;0.10;;;22.10;99.90;;;;;;5075089;28;20456;-74
2022/08/16 02:55:58;;;;;;;0.70;0.10;;;22.10;99.90;;;;;;5074926;28;20438;-72
2022/08/16 02:58:31;;;;;;;0.70;0.10;;;22.00;99.90;;;;;;5074602;28;20437;-72
2022/08/16 03:01:00;;;;;;;0.70;0.10;;;21.80;99.90;;;;;;5074745;28;20469;-73
2022/08/16 03:03:28;;;;;;;0.70;0.13;;;21.50;99.90;;;;;;5074461;28;20437;-73
2022/08/16 03:06:19;;;;;;;0.70;0.30;;;21.40;99.90;;;;;;5074030;28;20831;-72
2022/08/16 03:09:07;;;;;;;0.70;0.10;;;21.10;99.90;;;;;;5074059;28;20469;-73
2022/08/16 03:11:40;;;;;;;0.70;0.10;;;20.90;99.90;;;;;;5074241;28;20485;-73
2022/08/16 03:14:10;;;;;;;0.70;0.10;;;21.00;99.90;;;;;;5074315;28;20962;-73
2022/08/16 03:16:39;;;;;;;0.70;0.10;;;20.90;99.90;;;;;;5074291;28;20441;-73
2022/08/16 03:19:27;;;;;;;0.70;0.33;;;20.90;99.90;;;;;;5074384;28;20436;-73
2022/08/16 03:22:15;;;;;;;0.70;0.10;;;20.90;99.90;;;;;;5074106;28;20469;-73
2022/08/16 03:24:58;;;;;;;1.07;0.40;;;20.80;99.90;;;;;;5074073;28;20449;-73
2022/08/16 03:27:29;;;;;;;0.90;0.33;;;20.60;99.90;;;;;;5073607;28;20475;-73
2022/08/16 03:30:01;;;;;;;0.80;0.47;;;20.60;99.90;;;;;;5073866;28;20476;-73
2022/08/16 03:32:44;;;;;;;0.70;0.10;;;20.50;99.90;;;;;;5074013;28;20430;-73
2022/08/16 03:35:14;;;;;;;0.73;0.40;;;20.70;99.90;;;;;;5073987;28;20446;-73
2022/08/16 03:37:46;;;;;;;0.70;0.13;;;20.70;99.90;;;;;;5072775;28;20446;-74
2022/08/16 03:40:32;;;;;;;1.30;1.07;;;20.80;99.90;;;;;;5073737;28;20472;-73
2022/08/16 03:43:01;;;;;;;0.70;0.20;;;20.90;99.90;;;;;;5074151;28;20470;-74
2022/08/16 03:45:49;;;;;;;0.70;0.20;;;20.90;99.90;;;;;;5074211;28;20461;-74
2022/08/16 03:48:22;;;;;;;0.70;0.20;;;20.90;99.90;;;;;;5073225;28;21017;-74
2022/08/16 03:51:09;;;;;;;0.70;0.20;;;20.90;99.90;;;;;;5074157;28;20457;-74
2022/08/16 03:53:40;;;;;;;0.70;0.10;;;20.80;99.90;;;;;;5073839;28;20448;-74
2022/08/16 03:56:09;;;;;;;0.70;0.10;;;20.80;99.90;;;;;;5107510;28;20981;-73
2022/08/16 03:58:48;;;;;;;0.70;0.10;;;20.80;99.90;;;;;;5114360;28;21271;-73
2022/08/16 04:01:21;;;;;;;0.67;0.10;;;20.80;99.90;;;;;;5114429;28;20497;-74
2022/08/16 04:03:49;;;;;;;0.80;0.20;;;20.80;99.90;;;;;;5114774;28;20432;-73
2022/08/16 04:06:20;;;;;;;0.70;0.10;;;20.80;99.90;;;;;;5113609;28;20432;-72
2022/08/16 04:08:48;;;;;;;0.70;0.10;;;20.80;99.90;;;;;;5113049;28;20494;-74
2022/08/16 04:11:16;;;;;;;0.60;0.20;;;20.60;99.90;;;;;;5113570;28;20472;-73
2022/08/16 04:13:46;;;;;;;0.70;0.30;;;20.60;99.90;;;;;;5114118;28;20946;-73
2022/08/16 04:16:30;;;;;;;0.70;0.10;;;20.60;99.90;;;;;;5113617;28;20435;-73
2022/08/16 04:18:59;;;;;;;0.70;0.10;;;20.60;99.90;;;;;;5121454;22;20497;-70
2022/08/16 04:21:29;;;;;;;0.70;0.10;;;20.50;99.90;;;;;;5068145;28;20445;-70
2022/08/16 04:23:59;;;;;;;0.70;0.20;;;20.50;99.90;;;;;;5072051;28;20450;-70
2022/08/16 04:26:27;;;;;;;0.70;0.10;;;20.60;99.90;;;;;;5071594;28;20537;-70
2022/08/16 04:28:58;;;;;;;0.70;0.40;;;20.70;99.90;;;;;;5072190;28;20566;-70
2022/08/16 04:31:48;;;;;;;0.67;0.20;;;20.70;99.90;;;;;;5068570;28;20534;-69
2022/08/16 04:34:26;;;;;;;0.70;0.20;;;20.80;99.90;;;;;;5072645;28;20433;-70
2022/08/16 04:36:54;;;;;;;0.60;0.10;;;20.80;99.90;;;;;;5072504;28;20453;-70
2022/08/16 04:39:23;;;;;;;0.70;0.20;;;20.90;99.90;;;;;;5072496;28;20465;-69
2022/08/16 04:42:05;;;;;;;0.70;0.10;;;21.00;99.90;;;;;;5072031;28;20453;-70
2022/08/16 04:44:38;;;;;;;0.63;0.10;;;21.20;99.90;;;;;;5071678;28;20488;-70
2022/08/16 04:47:24;;;;;;;0.70;0.10;;;21.30;99.90;;;;;;5072184;28;20437;-69
2022/08/16 04:50:00;;;;;;;0.70;0.10;;;21.40;99.90;;;;;;5071594;28;20477;-70
2022/08/16 04:52:28;;;;;;;0.70;0.20;;;21.50;99.90;;;;;;5072033;28;20446;-70
2022/08/16 04:55:05;;;;;;;0.70;0.10;;;21.60;99.90;;;;;;5065309;28;20564;-71
2022/08/16 04:57:34;;;;;;;0.70;0.10;;;21.60;99.90;;;;;;5071873;28;20532;-72
2022/08/16 05:00:08;;;;;;;1.83;1.73;;;21.70;99.90;;;;;;5076895;28;20461;-70
2022/08/16 05:02:58;;;;;;;0.70;0.10;;;21.70;99.90;;;;;;5071663;28;20442;-70
2022/08/16 05:05:29;;;;;;;0.70;0.10;;;21.70;99.90;;;;;;5071950;28;20441;-69
2022/08/16 05:08:04;;;;;;;1.07;0.97;;;21.40;99.90;;;;;;5068465;28;20474;-70
2022/08/16 05:10:53;;;;;;;1.37;0.67;;;21.20;99.90;;;;;;5069799;28;20465;-70
2022/08/16 05:13:27;;;;;;;0.70;0.10;;;21.10;99.90;;;;;;5072005;28;20462;-69
2022/08/16 05:16:10;;;;;;;0.70;0.20;;;21.00;99.90;;;;;;5072485;28;20434;-72
2022/08/16 05:18:40;;;;;;;0.70;0.20;;;21.10;99.90;;;;;;5071733;28;20508;-69
2022/08/16 05:21:09;;;;;;;1.13;0.30;;;21.10;99.90;;;;;;5071902;28;20888;-69
2022/08/16 05:23:39;;;;;;;0.70;0.10;;;21.10;99.90;;;;;;5072147;28;20478;-69
2022/08/16 05:26:07;;;;;;;0.70;0.10;;;21.00;99.90;;;;;;5071450;28;20438;-69
2022/08/16 05:28:47;;;;;;;0.77;0.37;;;20.80;99.90;;;;;;5065347;28;20534;-70
2022/08/16 05:31:23;;;;;;;0.70;0.20;;;20.70;99.90;;;;;;5056809;28;20465;-70
2022/08/16 05:33:59;;;;;;;0.70;0.10;;;20.80;99.90;;;;;;5068866;28;20960;-70
2022/08/16 05:36:27;;;;;;;0.70;0.10;;;20.90;99.90;;;;;;5062116;28;20550;-70
2022/08/16 05:39:06;;;;;;;0.70;0.10;;;21.10;99.90;;;;;;5071273;28;20559;-69
2022/08/16 05:41:36;;;;;;;0.80;0.47;;;21.20;99.90;;;;;;5069370;28;20504;-70
2022/08/16 05:44:14;;;;;;;0.70;0.10;;;21.20;99.90;;;;;;5057274;28;20441;-70
2022/08/16 05:46:51;;;;;;;0.70;0.20;;;21.40;99.90;;;;;;5068551;28;20446;-71
2022/08/16 05:49:21;;;;;;;0.67;0.10;;;21.40;99.90;;;;;;5067121;28;20505;-69
2022/08/16 05:51:50;;;;;;;0.70;0.10;;;21.60;99.90;;;;;;5076865;28;20496;-71
2022/08/16 05:54:18;;;;;;;0.70;0.10;;;21.60;99.90;;;;;;5065795;28;20461;-69
2022/08/16 05:56:52;;;;;;;0.70;0.20;;;21.70;99.90;;;;;;5065563;28;20469;-70
2022/08/16 05:59:22;;;;;;;0.70;0.10;;;21.80;99.90;;;;;;5066586;28;20457;-70
2022/08/16 06:01:51;;;;;;;0.70;0.20;;;21.80;99.90;;;;;;5060162;28;20966;-70
2022/08/16 06:04:22;;;;;;;0.70;0.10;;;21.90;99.90;;;;;;5100337;28;20467;-69
2022/08/16 06:07:04;;;;;;;0.70;0.20;;;22.00;99.90;;;;;;5111238;28;20436;-70
2022/08/16 06:09:35;;;;;;;0.70;0.10;;;22.00;99.90;;;;;;5110874;28;20479;-71
2022/08/16 06:12:11;;;;;;;0.70;0.10;;;22.10;99.90;;;;;;5111396;28;20990;-69
2022/08/16 06:14:57;;;;;;;0.70;0.20;;;22.10;99.90;;;;;;5107864;28;20645;-69
2022/08/16 06:17:25;;;;;;;1.07;0.30;;;22.00;99.90;;;;;;5088682;28;20437;-70
2022/08/16 06:20:16;;;;;;;0.70;0.20;;;21.90;99.90;;;;;;5089645;28;20845;-72
2022/08/16 06:22:51;;;;;;;0.80;0.40;;;22.00;99.90;;;;;;5090685;28;20810;-72
2022/08/16 06:25:30;;;;;;;0.70;0.10;;;22.10;99.90;;;;;;5089072;28;20535;-72
2022/08/16 06:28:06;;;;;;;0.80;0.50;;;22.10;99.90;;;;;;5090298;28;20534;-72
2022/08/16 06:30:35;;;;;;;0.70;0.20;;;22.10;99.90;;;;;;5090849;28;20621;-71
2022/08/16 06:33:12;;;;;;;0.70;0.20;;;22.10;99.90;;;;;;5091597;28;20440;-71
2022/08/16 06:35:52;;;;;;;0.70;0.10;;;22.20;99.90;;;;;;5090821;28;20569;-72
2022/08/16 06:38:26;;;;;;;0.70;0.10;;;22.20;99.90;;;;;;5090286;28;20961;-69
2022/08/16 06:41:02;;;;;;;0.70;0.20;;;22.20;99.90;;;;;;5091143;28;20443;-72
2022/08/16 06:43:31;;;;;;;0.70;0.20;;;22.20;99.90;;;;;;5090984;28;20472;-71
2022/08/16 06:45:59;;;;;;;0.70;0.10;;;22.20;99.90;;;;;;5091034;28;20468;-72
2022/08/16 06:48:31;;;;;;;0.70;0.10;;;22.00;99.90;;;;;;5090705;28;20472;-72
2022/08/16 06:51:03;;;;;;;0.70;0.10;;;21.90;99.90;;;;;;5085997;28;20530;-73
2022/08/16 06:53:33;;;;;;;0.70;0.10;;;21.90;99.90;;;;;;5092312;28;20452;-71
2022/08/16 06:56:05;;;;;;;0.70;0.10;;;22.00;99.90;;;;;;5091659;28;20444;-72
2022/08/16 06:58:51;;;;;;;0.70;0.10;;;21.90;99.90;;;;;;5090660;28;20469;-72
2022/08/16 07:01:19;;;;;;;0.70;0.10;;;22.00;99.90;;;;;;5091032;28;20541;-72
2022/08/16 07:04:07;;;;;;;0.70;0.10;;;21.90;99.90;;;;;;5090846;28;20448;-72
2022/08/16 07:06:40;;;;;;;0.70;0.10;;;22.00;99.90;;;;;;5090527;28;20524;-72
2022/08/16 07:09:11;;;;;;;0.70;0.20;;;22.00;99.90;;;;;;5090608;28;20838;-72
2022/08/16 07:11:39;;;;;;;0.70;0.20;;;22.00;99.90;;;;;;5090358;28;20631;-73
2022/08/16 07:14:18;;;;;;;0.70;0.20;;;22.10;99.90;;;;;;5094316;28;20441;-73
2022/08/16 07:16:56;;;;;;;0.70;0.20;;;22.00;99.90;;;;;;5093937;28;20535;-72
2022/08/16 07:19:25;;;;;;;0.70;0.10;;;22.10;99.90;;;;;;5093894;28;20483;-72
2022/08/16 07:22:15;;;;;;;0.70;0.17;;;22.20;99.90;;;;;;5094243;28;20522;-73
2022/08/16 07:25:04;;;;;;;0.70;0.10;;;22.30;99.90;;;;;;5094167;28;20440;-72
2022/08/16 07:27:31;;;;;;;0.70;0.10;;;22.40;99.90;;;;;;5094129;28;20548;-72
2022/08/16 07:30:06;;;;;;;0.70;0.20;;;22.40;99.90;;;;;;5094100;28;20456;-74
2022/08/16 07:32:56;;;;;;;0.97;0.63;;;22.50;99.90;;;;;;5093618;28;20448;-71
2022/08/16 07:35:24;;;;;;;0.70;0.10;;;22.20;99.90;;;;;;5094135;28;20448;-72
2022/08/16 07:37:53;;;;;;;0.70;0.10;;;22.20;99.90;;;;;;5093982;28;20947;-72
2022/08/16 07:40:22;;;;;;;0.70;0.20;;;22.10;99.90;;;;;;5094113;28;20991;-73
2022/08/16 07:43:09;;;;;;;0.70;0.20;;;22.00;99.90;;;;;;5093982;28;20815;-72
2022/08/16 07:45:38;;;;;;;0.70;0.20;;;22.10;99.90;;;;;;5093754;28;20455;-72
2022/08/16 07:48:10;;;;;;;0.90;0.20;;;22.20;99.90;;;;;;5093473;28;20811;-71
2022/08/16 07:50:40;;;;;;;0.70;0.20;;;22.20;99.90;;;;;;5093214;28;20970;-71
2022/08/16 07:53:28;;;;;;;0.70;0.10;;;22.40;99.90;;;;;;5093477;28;20433;-71
2022/08/16 07:55:58;;;;;;;0.70;0.10;;;22.50;99.90;;;;;;5093507;28;20818;-72
2022/08/16 07:58:27;;;;;;;0.70;0.10;;;22.50;99.90;;;;;;5093256;28;20507;-73
2022/08/16 08:01:04;;;;;;;0.70;0.30;;;22.50;99.90;;;;;;5093818;28;20482;-73
2022/08/16 08:03:42;;;;;;;1.07;0.80;;;22.60;99.90;;;;;;5094042;28;20444;-71
2022/08/16 08:06:16;;;;;;;0.70;0.30;;;22.60;99.90;;;;;;5093092;28;20547;-72
2022/08/16 08:08:46;;;;;;;2.00;1.90;;;22.60;99.90;;;;;;5093580;28;20780;-71
2022/08/16 08:11:20;;;;;;;1.17;1.07;;;22.60;99.90;;;;;;5093449;28;20911;-72
2022/08/16 08:13:51;;;;;;;0.70;0.20;;;22.60;99.90;;;;;;5091467;28;20594;-72
2022/08/16 08:16:21;;;;;;;0.70;0.20;;;22.70;99.90;;;;;;5092941;28;20448;-70
2022/08/16 08:18:56;;;;;;;0.70;0.20;;;22.70;99.90;;;;;;5093077;28;20870;-74
2022/08/16 08:21:29;;;;;;;0.70;0.10;;;;;;;;;;5093415;28;20918;-75
2022/08/16 08:24:19;;;;;;;0.70;0.30;;;22.80;99.90;;;;;;5091602;28;20845;-72
2022/08/16 08:26:48;;;;;;;0.70;0.10;;;;;;;;;;5093355;28;20810;-72
2022/08/16 08:29:17;;;;;;;0.70;0.20;;;23.00;99.90;;;;;;5093163;28;20456;-73
2022/08/16 08:31:51;;;;;;;0.70;0.20;;;22.90;99.90;;;;;;5092667;28;20483;-72
2022/08/16 08:34:21;;;;;;;0.70;0.10;;;23.10;99.90;;;;;;5092149;28;20453;-72
2022/08/16 08:36:50;;;;;;;0.80;0.30;;;23.20;99.90;;;;;;5092151;28;20436;-72
2022/08/16 08:39:22;;;;;;;0.70;0.20;;;23.20;99.90;;;;;;5091803;28;20464;-70
2022/08/16 08:41:51;;;;;;;0.70;0.20;;;23.20;99.90;;;;;;5092230;28;20502;-71
2022/08/16 08:44:20;;;;;;;0.70;0.20;;;23.20;99.90;;;;;;5092923;28;20478;-73
2022/08/16 08:46:58;;;;;;;0.70;0.20;;;23.30;99.90;;;;;;5092711;28;20842;-71
2022/08/16 08:49:29;;;;;;;0.70;0.10;;;23.40;99.90;;;;;;5092333;28;20475;-72
2022/08/16 08:52:18;;;;;;;0.70;0.20;;;23.40;99.90;;;;;;5092637;28;20484;-70
2022/08/16 08:55:10;;;;;;;0.70;0.20;;;23.60;99.90;;;;;;5092428;28;20452;-71
2022/08/16 08:57:40;;;;;;;0.70;0.20;;;23.70;99.90;;;;;;5092588;28;20444;-70
2022/08/16 09:00:10;;;;;;;0.70;0.10;;;23.70;99.90;;;;;;5091769;28;20852;-70
2022/08/16 09:02:42;;;;;;;0.70;0.10;;;23.90;99.90;;;;;;5092047;28;20441;-72
2022/08/16 09:05:21;;;;;;;0.70;0.20;;;23.90;99.90;;;;;;5091512;28;20932;-71
2022/08/16 09:07:49;;;;;;;0.70;0.20;;;23.90;99.90;;;;;;5091839;28;20476;-71
2022/08/16 09:10:29;;;;;;;0.70;0.20;;;24.00;99.90;;;;;;5091874;28;20522;-72
2022/08/16 09:12:58;;;;;;;0.70;0.20;;;24.10;99.90;;;;;;5091540;28;20505;-71
2022/08/16 09:15:26;;;;;;;0.70;0.10;;;24.10;99.90;;;;;;5082537;28;20445;-72
2022/08/16 09:18:00;;;;;;;0.90;0.70;;;24.20;99.90;;;;;;5070604;28;20452;-72
2022/08/16 09:20:51;;;;;;;0.70;0.20;;;24.20;99.90;;;;;;5070933;28;20595;-74
2022/08/16 09:23:27;;;;;;;0.70;0.20;;;24.30;99.90;;;;;;5071603;28;20452;-74
2022/08/16 09:25:56;;;;;;;0.70;0.10;;;24.30;99.90;;;;;;5070385;28;20456;-73
2022/08/16 09:28:24;;;;;;;0.70;0.10;;;24.50;99.90;;;;;;5074841;28;20535;-74
2022/08/16 09:31:12;;;;;;;0.70;0.10;;;24.70;99.90;;;;;;5092179;28;20479;-73
2022/08/16 09:33:41;;;;;;;0.70;0.10;;;;;;;;;;5092085;28;20444;-72
2022/08/16 09:36:10;;;;;;;0.70;0.20;;;24.80;99.90;;;;;;5091312;28;20566;-73
2022/08/16 09:38:58;;;;;;;0.80;0.40;;;24.80;99.90;;;;;;5091788;28;20552;-74
2022/08/16 09:41:28;;;;;;;0.70;0.20;;;24.80;99.90;;;;;;5092133;28;20787;-73
2022/08/16 09:43:56;;;;;;;0.70;0.20;;;24.80;99.90;;;;;;5091235;28;20458;-73
2022/08/16 09:46:28;;;;;;;0.70;0.20;;;24.90;99.90;;;;;;5090320;28;20476;-74
2022/08/16 09:49:16;;;;;;;0.70;0.10;;;24.90;99.90;;;;;;5083579;28;20460;-73
2022/08/16 09:51:53;;;;;;;0.70;0.20;;;24.90;99.90;;;;;;5091446;28;20842;-74
2022/08/16 09:54:27;;;;;;;0.70;0.10;;;24.90;99.90;;;;;;5091593;28;20547;-72
2022/08/16 09:57:01;;;;;;;0.70;0.20;;;;;;;;;;5091221;28;21099;-73
2022/08/16 09:59:30;;;;;;;0.80;0.23;;;25.00;99.90;;;;;;5091273;28;20460;-73
2022/08/16 10:02:05;;;;;;;0.70;0.20;;;25.10;99.90;;;;;;5086306;28;20432;-73
2022/08/16 10:04:54;;;;;;;1.00;0.53;;;25.30;99.90;;;;;;5091009;28;20464;-73
2022/08/16 10:07:22;;;;;;;0.70;0.20;;;25.30;99.90;;;;;;5090837;28;20441;-72
2022/08/16 10:09:51;;;;;;;0.90;0.47;;;25.50;99.90;;;;;;5090773;28;20994;-73
2022/08/16 10:15:13;;;;;;;0.80;0.40;;;25.40;99.90;;;;;;5091595;28;20447;-73
2022/08/16 10:17:44;;;;;;;0.70;0.13;;;25.40;99.90;;;;;;5091332;28;20451;-74
2022/08/16 10:20:27;;;;;;;0.70;0.20;;;25.50;99.90;;;;;;5103653;22;20593;-78
2022/08/16 10:22:55;;;;;;;0.80;0.40;;;25.60;99.90;;;;;;5089755;28;20498;-77
2022/08/16 10:25:32;;;;;;;0.70;0.10;;;25.80;99.90;;;;;;5091424;28;20440;-77
2022/08/16 10:28:22;;;;;;;0.70;0.20;;;25.70;99.90;;;;;;5082125;28;20987;-77
2022/08/16 10:30:57;;;;;;;0.70;0.20;;;25.80;99.90;;;;;;5053844;28;20430;-76
2022/08/16 10:33:27;;;;;;;0.70;0.13;;;25.80;99.90;;;;;;5052834;28;20489;-76
2022/08/16 10:35:57;;;;;;;0.70;0.10;;;25.90;99.90;;;;;;5051944;28;20860;-77
2022/08/16 10:38:30;;;;;;;0.70;0.10;;;25.90;99.90;;;;;;5052259;28;20465;-76
2022/08/16 10:41:03;;;;;;;0.70;0.20;;;25.90;99.90;;;;;;5058794;28;20525;-76
2022/08/16 10:43:35;;;;;;;0.70;0.10;;;26.00;99.90;;;;;;5051453;28;20443;-76
2022/08/16 10:46:07;;;;;;;0.70;0.17;;;25.90;99.90;;;;;;5051592;28;20481;-76
2022/08/16 10:48:55;;;;;;;0.70;0.10;;;26.30;99.90;;;;;;5056111;28;20455;-77
2022/08/16 10:51:24;;;;;;;0.70;0.10;;;26.40;99.90;;;;;;5055942;28;20447;-77
2022/08/16 10:54:12;;;;;;;0.90;0.47;;;27.10;99.90;;;;;;5056437;28;20497;-78
2022/08/16 10:56:57;;;;;;;0.70;0.20;;;26.60;99.90;;;;;;5056213;28;20915;-76
2022/08/16 10:59:28;;;;;;;0.70;0.30;;;26.90;99.90;;;;;;5055846;28;20513;-77
2022/08/16 11:02:14;;;;;;;0.70;0.10;;;26.90;99.90;;;;;;5056975;28;20847;-77
2022/08/16 11:05:02;;;;;;;0.70;0.10;;;27.10;99.90;;;;;;5056423;28;20439;-78
2022/08/16 11:07:33;;;;;;;0.70;0.10;;;27.20;99.90;;;;;;5055638;28;20525;-77
2022/08/16 11:10:22;;;;;;;0.70;0.30;;;27.30;99.90;;;;;;5056538;28;20834;-76
2022/08/16 11:13:12;;;;;;;0.70;0.10;;;27.40;99.90;;;;;;5055116;28;20492;-77
2022/08/16 11:16:02;;;;;;;0.70;0.20;;;27.30;99.90;;;;;;5054830;28;20450;-76
2022/08/16 11:18:50;;;;;;;0.70;0.10;;;27.50;99.90;;;;;;5054870;28;20527;-76
2022/08/16 11:21:38;;;;;;;0.70;0.10;;;27.50;99.90;;;;;;5055066;28;20485;-77
2022/08/16 11:24:27;;;;;;;0.80;0.33;;;27.40;99.90;;;;;;5055143;28;20441;-76
2022/08/16 11:27:10;;;;;;;0.70;0.20;;;27.50;99.90;;;;;;5055746;28;20458;-77
2022/08/16 11:29:48;;;;;;;0.70;0.30;;;27.70;99.90;;;;;;5070074;28;20453;-78
2022/08/16 11:32:20;;;;;;;0.70;0.20;;;27.70;99.90;;;;;;5077094;28;20824;-79
2022/08/16 11:35:01;;;;;;;0.70;0.10;;;27.60;99.90;;;;;;5079550;28;20441;-78
2022/08/16 11:37:45;;;;;;;0.70;0.10;;;27.70;99.90;;;;;;5079186;28;20491;-78
2022/08/16 11:40:36;;;;;;;1.47;0.30;;;27.70;99.90;;;;;;5079555;28;20801;-77
2022/08/16 11:43:05;;;;;;;0.70;0.20;;;27.90;99.90;;;;;;5074993;28;20441;-77
2022/08/16 11:45:37;;;;;;;0.70;0.20;;;27.90;99.90;;;;;;5075268;28;20515;-76
2022/08/16 11:48:07;;;;;;;0.70;0.20;;;27.90;99.90;;;;;;5073752;28;20764;-77
2022/08/16 11:50:35;;;;;;;0.70;0.20;;;;;;;;;;5067961;28;20486;-77
2022/08/16 11:53:05;;;;;;;0.70;0.20;;;28.00;99.90;;;;;;5062079;28;20470;-77
2022/08/16 11:55:36;;;;;;;0.70;0.20;;;28.10;99.90;;;;;;5054753;28;20446;-77
2022/08/16 11:58:06;;;;;;;0.70;0.10;;;28.20;99.90;;;;;;5053451;28;20480;-76
2022/08/16 12:00:36;;;;;;;0.70;0.10;;;28.30;99.90;;;;;;5053825;28;20471;-77
2022/08/16 12:03:19;;;;;;;0.70;0.20;;;28.30;99.90;;;;;;5053934;28;20419;-77
2022/08/16 12:06:08;;;;;;;0.70;0.23;;;28.40;99.90;;;;;;5053614;28;20435;-76
2022/08/16 12:08:39;;;;;;;0.70;0.10;;;28.10;99.90;;;;;;5053990;28;20511;-76
2022/08/16 12:11:09;;;;;;;0.70;0.20;;;;;;;;;;5054180;28;20533;-78
2022/08/16 12:13:39;;;;;;;0.70;0.10;;;28.10;99.90;;;;;;5054273;28;20492;-77
2022/08/16 12:16:08;;;;;;;0.70;0.20;;;28.10;99.90;;;;;;5054869;28;20469;-77
2022/08/16 12:18:39;;;;;;;0.70;0.10;;;28.40;99.90;;;;;;5054206;28;20525;-77
2022/08/16 12:21:16;;;;;;;0.93;0.57;;;;;;;;;;5060604;28;20477;-79
2022/08/16 12:23:50;;;;;;;0.73;0.27;;;;;;;;;;5056552;28;20960;-78
2022/08/16 12:26:19;;;;;;;1.17;0.30;;;28.50;99.90;;;;;;5056142;28;20537;-78
2022/08/16 12:28:49;;;;;;;0.70;0.10;;;;;;;;;;5063713;28;20536;-77
2022/08/16 12:31:23;;;;;;;0.70;0.20;;;28.30;99.90;;;;;;5079147;28;20895;-77
2022/08/16 12:33:53;;;;;;;0.70;0.30;;;28.40;99.90;;;;;;5077064;28;20987;-76
2022/08/16 12:36:26;;;;;;;0.70;0.13;;;28.40;99.90;;;;;;5074473;28;20479;-77
2022/08/16 12:38:57;;;;;;;0.70;0.10;;;28.50;99.90;;;;;;5074331;28;20466;-77
2022/08/16 12:41:26;;;;;;;0.70;0.30;;;28.60;99.90;;;;;;5074710;28;20533;-78
2022/08/16 12:43:54;;;;;;;0.70;0.10;;;28.60;99.90;;;;;;5074718;28;20528;-77
2022/08/16 12:46:28;;;;;;;0.80;0.40;;;28.60;99.90;;;;;;5074093;28;20600;-77
2022/08/16 12:48:59;;;;;;;0.70;0.20;;;28.60;99.90;;;;;;5073611;28;20550;-76
2022/08/16 12:51:30;;;;;;;0.70;0.10;;;28.60;99.90;;;;;;5074680;28;20437;-78
2022/08/16 12:54:18;;;;;;;0.70;0.20;;;28.70;99.90;;;;;;5073028;28;20489;-77
2022/08/16 12:56:46;;;;;;;0.80;0.40;;;28.70;99.90;;;;;;5074496;28;20452;-77
2022/08/16 12:59:18;;;;;;;0.70;0.10;;;28.60;99.90;;;;;;5077305;28;20541;-78
2022/08/16 13:01:48;;;;;;;0.70;0.20;;;28.50;99.90;;;;;;5081857;28;20489;-76
2022/08/16 13:04:26;;;;;;;0.70;0.10;;;28.50;99.90;;;;;;5081010;28;21127;-77
2022/08/16 13:06:58;;;;;;;1.00;0.30;;;28.50;99.90;;;;;;5083152;28;20441;-76
2022/08/16 13:09:28;;;;;;;0.80;0.40;;;28.40;99.90;;;;;;5082716;28;20466;-76
2022/08/16 13:12:01;;;;;;;0.80;0.30;;;28.40;99.90;;;;;;5082513;28;20507;-76
2022/08/16 13:14:33;;;;;;;0.70;0.20;;;28.30;99.90;;;;;;5081792;28;20466;-77
2022/08/16 13:17:03;;;;;;;0.80;0.43;;;28.30;99.90;;;;;;5072436;28;20448;-77
2022/08/16 13:19:36;;;;;;;0.70;0.10;;;28.30;99.90;;;;;;5073162;28;20481;-77
2022/08/16 13:22:24;;;;;;;0.70;0.20;;;28.40;99.90;;;;;;5072610;28;20943;-77
2022/08/16 13:24:52;;;;;;;1.90;1.60;;;28.50;99.90;;;;;;5074662;28;20438;-77
2022/08/16 13:27:21;;;;;;;0.70;0.10;;;28.60;99.90;;;;;;5073022;28;20495;-77
2022/08/16 13:30:10;;;;;;;0.70;0.10;;;28.70;99.90;;;;;;5072398;28;20461;-76
2022/08/16 13:32:58;;;;;;;0.93;0.70;;;28.80;99.90;;;;;;5071957;28;20450;-76
2022/08/16 13:35:29;;;;;;;0.70;0.17;;;28.90;99.90;;;;;;5071554;28;20944;-76